createdAt,value
2022-07-26T00:04:54.367Z,25
2022-07-26T00:10:06.856Z,25
2022-07-26T00:15:18.977Z,25
2022-07-26T00:20:31.307Z,25
2022-07-26T00:25:45.179Z,25
2022-07-26T00:30:57.720Z,25
2022-07-26T00:36:09.936Z,25
2022-07-26T00:41:22.158Z,25
2022-07-26T00:46:34.470Z,25
2022-07-26T00:51:47.213Z,24
2022-07-26T00:56:59.238Z,25
2022-07-26T01:02:15.865Z,25
2022-07-26T01:07:30.147Z,25
2022-07-26T01:12:42.237Z,24
2022-07-26T01:17:54.580Z,24
2022-07-26T01:23:06.617Z,24
2022-07-26T01:28:20.852Z,24
2022-07-26T01:33:32.408Z,24
2022-07-26T01:38:44.558Z,24
2022-07-26T01:43:57.009Z,24
2022-07-26T01:49:09.614Z,24
2022-07-26T01:54:25.076Z,24
2022-07-26T01:59:36.228Z,24
2022-07-26T02:04:48.543Z,24
2022-07-26T02:10:01.234Z,24
2022-07-26T02:15:13.950Z,24
2022-07-26T02:20:26.391Z,24
2022-07-26T02:25:38.753Z,24
2022-07-26T02:30:52.604Z,24
2022-07-26T02:36:05.571Z,24
2022-07-26T02:41:18.143Z,24
2022-07-26T02:46:30.759Z,24
2022-07-26T02:51:43.161Z,24
2022-07-26T02:56:55.606Z,24
2022-07-26T03:02:08.451Z,24
2022-07-26T03:07:21.024Z,24
2022-07-26T03:12:33.471Z,23
2022-07-26T03:17:45.860Z,24
2022-07-26T03:22:58.315Z,23
2022-07-26T03:28:19.011Z,24
2022-07-26T03:33:30.534Z,24
2022-07-26T03:38:42.900Z,24
2022-07-26T03:43:55.203Z,24
2022-07-26T03:49:09.305Z,24
2022-07-26T03:54:27.410Z,24
2022-07-26T03:59:39.731Z,24
2022-07-26T04:04:56.395Z,24
2022-07-26T04:10:08.496Z,24
2022-07-26T04:15:21.365Z,24
2022-07-26T04:20:33.834Z,24
2022-07-26T04:25:46.271Z,24
2022-07-26T04:30:58.789Z,24
2022-07-26T04:36:11.241Z,23
2022-07-26T04:41:23.629Z,24
2022-07-26T04:46:36.317Z,23
2022-07-26T04:51:48.793Z,24
2022-07-26T04:57:01.015Z,24
2022-07-26T05:02:13.917Z,23
2022-07-26T05:07:26.798Z,24
2022-07-26T05:12:39.333Z,24
2022-07-26T05:17:51.984Z,24
2022-07-26T05:23:04.524Z,24
2022-07-26T05:28:17.043Z,24
2022-07-26T05:33:29.585Z,25
2022-07-26T05:38:42.042Z,25
2022-07-26T05:43:54.673Z,25
2022-07-26T05:49:07.230Z,25
2022-07-26T05:54:23.652Z,25
2022-07-26T05:59:35.940Z,25
2022-07-26T06:04:48.731Z,25
2022-07-26T06:10:01.163Z,25
2022-07-26T06:15:16.493Z,25
2022-07-26T06:20:28.059Z,25
2022-07-26T06:25:40.604Z,26
2022-07-26T06:30:52.932Z,26
2022-07-26T06:36:05.438Z,26
2022-07-26T06:41:18.203Z,26
2022-07-26T06:46:31.146Z,27
2022-07-26T06:51:43.773Z,26
2022-07-26T06:56:55.995Z,27
2022-07-26T07:02:08.693Z,27
2022-07-26T07:07:21.721Z,27
2022-07-26T07:12:34.713Z,27
2022-07-26T07:17:47.233Z,27
2022-07-26T07:22:59.582Z,27
2022-07-26T07:28:12.183Z,27
2022-07-26T07:33:43.924Z,27
2022-07-26T07:39:15.425Z,27
2022-07-26T07:44:26.824Z,27
2022-07-26T07:49:42.899Z,27
2022-07-26T07:55:43.791Z,27
2022-07-26T08:00:55.988Z,27
2022-07-26T08:06:08.644Z,28
2022-07-26T08:11:21.455Z,28
2022-07-26T08:16:34.157Z,28
2022-07-26T08:21:47.603Z,29
2022-07-26T08:32:28.614Z,28
2022-07-26T08:37:38.163Z,29
2022-07-26T08:42:53.325Z,29
2022-07-26T08:53:16.133Z,29
2022-07-26T08:58:28.754Z,29
2022-07-26T09:03:41.917Z,29
2022-07-26T09:08:54.903Z,29
2022-07-26T09:14:07.699Z,29
2022-07-26T09:19:20.544Z,30
2022-07-26T09:24:33.294Z,30
2022-07-26T09:29:45.956Z,30
2022-07-26T09:35:00.453Z,30
2022-07-26T09:40:12.664Z,30
2022-07-26T09:45:25.266Z,30
2022-07-26T09:50:38.070Z,31
2022-07-26T09:55:50.867Z,31
2022-07-26T10:01:03.884Z,31
2022-07-26T10:11:27.058Z,31
2022-07-26T10:16:39.737Z,31
2022-07-26T10:21:53.973Z,32
2022-07-26T10:27:06.772Z,32
2022-07-26T10:32:19.383Z,32
2022-07-26T10:37:33.613Z,31
2022-07-26T10:42:45.890Z,32
2022-07-26T10:47:58.632Z,32
2022-07-26T10:53:11.655Z,32
2022-07-26T10:58:24.334Z,32
2022-07-26T11:03:40.063Z,32
2022-07-26T11:19:18.770Z,32
2022-07-26T11:24:33.375Z,33
2022-07-26T11:29:51.866Z,34
2022-07-26T11:35:09.955Z,36
2022-07-26T11:45:34.547Z,36
2022-07-26T11:50:48.194Z,37
2022-07-26T11:56:01.905Z,37
2022-07-26T12:01:14.704Z,37
2022-07-26T12:06:27.875Z,37
2022-07-26T12:11:41.285Z,37
2022-07-26T12:16:54.154Z,38
2022-07-26T12:22:07.145Z,38
2022-07-26T12:27:25.227Z,39
2022-07-26T12:37:49.257Z,37
2022-07-26T12:48:12.563Z,37
2022-07-26T13:03:48.183Z,37
2022-07-26T13:09:00.680Z,37
2022-07-26T13:14:15.247Z,38
2022-07-26T13:24:39.098Z,36
2022-07-26T13:29:52.918Z,36
2022-07-26T13:45:30.368Z,35
2022-07-26T13:50:42.162Z,35
2022-07-26T13:55:54.900Z,35
2022-07-26T14:01:07.893Z,35
2022-07-26T14:06:20.679Z,35
2022-07-26T14:11:33.141Z,35
2022-07-26T14:22:01.004Z,34
2022-07-26T14:27:14.453Z,35
2022-07-26T14:32:27.263Z,35
2022-07-26T14:37:46.486Z,35
2022-07-26T14:53:19.833Z,34
2022-07-26T14:58:32.225Z,34
2022-07-26T15:24:27.070Z,34
2022-07-26T15:34:50.418Z,34
2022-07-26T15:45:14.360Z,33
2022-07-26T15:50:29.879Z,34
2022-07-26T16:06:06.716Z,33
2022-07-26T16:11:18.908Z,33
2022-07-26T16:16:31.738Z,33
2022-07-26T16:21:55.299Z,33
2022-07-26T16:27:07.666Z,33
2022-07-26T16:32:19.966Z,33
2022-07-26T16:37:32.525Z,33
2022-07-26T16:42:45.467Z,32
2022-07-26T16:48:00.678Z,32
2022-07-26T16:53:14.072Z,32
2022-07-26T17:03:36.364Z,32
2022-07-26T17:08:48.929Z,31
2022-07-26T17:14:01.601Z,32
2022-07-26T17:24:25.371Z,32
2022-07-26T17:34:48.688Z,31
2022-07-26T17:40:03.751Z,31
2022-07-26T17:45:15.588Z,31
2022-07-26T17:55:39.138Z,30
2022-07-26T18:00:51.432Z,30
2022-07-26T18:06:04.077Z,30
2022-07-26T18:11:16.718Z,30
2022-07-26T18:16:32.800Z,30
2022-07-26T18:21:46.352Z,30
2022-07-26T18:26:58.693Z,30
2022-07-26T18:32:10.938Z,29
2022-07-26T18:37:23.251Z,29
2022-07-26T18:42:35.628Z,29
2022-07-26T18:47:47.988Z,29
2022-07-26T18:53:00.730Z,29
2022-07-26T18:58:13.621Z,29
2022-07-26T19:03:25.937Z,29
2022-07-26T19:08:38.438Z,29
2022-07-26T19:13:51.129Z,28
2022-07-26T19:19:04.092Z,28
2022-07-26T19:24:16.413Z,28
2022-07-26T19:29:28.663Z,28
2022-07-26T19:34:41.150Z,28
2022-07-26T19:39:53.609Z,28
2022-07-26T19:45:07.403Z,28
2022-07-26T19:50:19.335Z,28
2022-07-26T19:55:31.544Z,27
2022-07-26T20:00:45.900Z,28
2022-07-26T20:05:57.875Z,28
2022-07-26T20:11:10.237Z,28
2022-07-26T20:16:22.845Z,27
2022-07-26T20:21:35.293Z,27
2022-07-26T20:26:47.667Z,27
2022-07-26T20:32:00.295Z,27
2022-07-26T20:37:12.896Z,27
2022-07-26T20:42:32.144Z,27
2022-07-26T20:47:45.916Z,27
2022-07-26T20:52:58.318Z,27
2022-07-26T20:58:10.786Z,27
2022-07-26T21:03:23.335Z,27
2022-07-26T21:08:35.497Z,27
2022-07-26T21:13:53.277Z,27
2022-07-26T21:19:06.794Z,27
2022-07-26T21:24:19.573Z,27
2022-07-26T21:29:32.733Z,27
2022-07-26T21:34:51.087Z,27
2022-07-26T21:40:03.517Z,27
2022-07-26T21:45:15.909Z,27
2022-07-26T21:50:28.308Z,26
2022-07-26T21:55:40.918Z,26
2022-07-26T22:00:53.565Z,26
2022-07-26T22:06:06.697Z,26
2022-07-26T22:11:20.562Z,26
2022-07-26T22:16:32.744Z,25
2022-07-26T22:21:45.297Z,26
2022-07-26T22:26:57.720Z,26
2022-07-26T22:32:10.332Z,26
2022-07-26T22:37:22.696Z,26
2022-07-26T22:42:34.959Z,26
2022-07-26T22:47:56.998Z,25
2022-07-26T22:53:07.831Z,25
2022-07-26T22:58:20.071Z,25
2022-07-26T23:03:38.477Z,25
2022-07-26T23:08:58.452Z,25
2022-07-26T23:14:10.491Z,25
2022-07-26T23:19:22.801Z,25
2022-07-26T23:24:35.142Z,25
2022-07-26T23:29:49.853Z,25
2022-07-26T23:35:01.183Z,25
2022-07-26T23:40:14.251Z,25
2022-07-26T23:45:26.351Z,25
2022-07-26T23:50:38.758Z,25
2022-07-26T23:55:50.860Z,25
